Flight Track Log - Related Links

Times and Time Zones

All times are in EDT time to prevent confusion due to time zone crossing. See the SWA2493 flight status page for this flight to view local times or setup timezone preferences in your user account.

Time Position Orientation Groundspeed Altitude Reporting Facility
EDT Latitude Longitude Course Direction KTS MPH feet Rate Location/Type
Sat 08:55:53 PM 26.5500 -81.8700 347° North 231 266 4,900  Level Miami Center
Sat 08:56:53 PM 26.6258 -81.8431 18° North 211 243 7,800 2,800 Climbing Miami Center
Sat 08:57:53 PM 26.7017 -81.8256 12° North 242 278 10,500 2,600 Climbing Miami Center
Sat 08:58:53 PM 26.8028 -81.7994 13° North 309 356 13,000 2,750 Climbing Miami Center
Sat 08:59:00 PM 27.0527 -81.7477 340° North  Level FlightAware Approximate
Sat 08:59:53 PM 26.9014 -81.7875 North 345 397 16,000  Level Miami Center
Sat 09:00:00 PM 27.1512 -81.7878 347° North  Level FlightAware Approximate
Sat 09:00:53 PM 26.9925 -81.8075 349° North 350 403 18,500  Level Miami Center
Sat 09:01:53 PM 27.1106 -81.8311 350° North 386 444 21,500 2,650 Climbing Miami Center
Sat 09:02:53 PM 27.2183 -81.8544 349° North 396 456 23,800 2,250 Climbing Miami Center
Sat 09:03:53 PM 27.3344 -81.8783 350° North 406 467 26,000 2,000 Climbing Miami Center
Sat 09:04:53 PM 27.4400 -81.9017 349° North 419 482 27,800 1,900 Climbing Miami Center
Sat 09:05:53 PM 27.5728 -81.9261 351° North 435 501 29,800 1,613 Climbing Miami Center
Sat 09:07:59 PM 27.8150 -81.9775 349° North 448 516 32,800 1,524 Climbing Jacksonville Center
Sat 09:08:58 PM 27.9342 -82.0047 349° North 448 516 34,500 1,600 Climbing Jacksonville Center
Sat 09:09:59 PM 28.0492 -82.0389 345° North 428 493 36,000 1,450 Climbing Jacksonville Center
Sat 09:10:58 PM 28.1600 -82.0850 340° North 428 493 37,400 1,462 Climbing Jacksonville Center
Sat 09:11:58 PM 28.2708 -82.1289 341° North 421 484 38,900 1,300 Climbing Jacksonville Center
Sat 09:12:58 PM 28.3775 -82.1731 340° North 416 479 40,000 545 Climbing Jacksonville Center
Sat 09:13:59 PM 28.4861 -82.2194 339° North 410 472 40,000  Level Jacksonville Center
Sat 09:14:58 PM 28.5950 -82.2614 341° North 410 472 40,000  Level Jacksonville Center
Sat 09:15:59 PM 28.7017 -82.3056 340° North 410 472 40,000  Level Jacksonville Center
Sat 09:16:59 PM 28.8061 -82.3475 341° North 404 465 40,000  Level Jacksonville Center
Sat 09:17:58 PM 28.9128 -82.3897 341° North 404 465 40,000  Level Jacksonville Center
Sat 09:18:59 PM 29.0172 -82.4344 339° North 404 465 40,000  Level Jacksonville Center
Sat 09:19:59 PM 29.1239 -82.4767 341° North 404 465 40,000  Level Jacksonville Center
Sat 09:20:59 PM 29.2283 -82.5214 340° North 404 465 40,000  Level Jacksonville Center
Sat 09:21:59 PM 29.3328 -82.5661 340° North 404 465 40,000  Level Jacksonville Center
Sat 09:22:59 PM 29.4375 -82.6089 340° North 404 465 40,000  Level Jacksonville Center
Sat 09:23:59 PM 29.5461 -82.6586 338° Northwest 399 459 40,000  Level Jacksonville Center
Sat 09:24:58 PM 29.6483 -82.6989 341° North 399 459 40,000  Level Jacksonville Center
Sat 09:25:59 PM 29.7550 -82.7442 340° North 399 459 40,000  Level Jacksonville Center
Sat 09:26:59 PM 29.8594 -82.7872 340° North 399 459 40,000  Level Jacksonville Center
Sat 09:27:59 PM 29.9639 -82.8328 339° North 399 459 40,000  Level Jacksonville Center
Sat 09:28:59 PM 30.0764 -82.8758 342° North 394 453 40,000  Level Jacksonville Center
Sat 09:29:59 PM 30.1789 -82.9189 340° North 389 448 40,000  Level Jacksonville Center
Sat 09:30:59 PM 30.2833 -82.9622 340° North 389 448 40,000 50 Level Jacksonville Center
Sat 09:32:00 PM 30.3856 -83.0058 340° North 389 448 40,100  Climbing Jacksonville Center
Sat 09:32:58 PM 30.4897 -83.0517 339° North 389 448 40,000 -50 Descending Jacksonville Center
Sat 09:33:59 PM 30.5942 -83.0953 340° North 389 448 40,000  Level Jacksonville Center
Sat 09:34:58 PM 30.6964 -83.1389 340° North 389 448 40,000  Level Jacksonville Center
Sat 09:35:59 PM 30.8028 -83.1828 340° North 394 453 40,000 50 Level Jacksonville Center
Sat 09:36:59 PM 30.8925 -83.2242 338° Northwest 389 448 40,100 32 Climbing Jacksonville Center
Sat 09:39:04 PM 31.1183 -83.3233 339° North 387 445 40,100  Level Atlanta Center
Sat 09:40:04 PM 31.2189 -83.3664 340° North 388 447 40,100  Level Atlanta Center
Sat 09:41:04 PM 31.3214 -83.4092 340° North 388 447 40,100  Level Atlanta Center
Sat 09:42:04 PM 31.4239 -83.4525 340° North 388 447 40,100  Level Atlanta Center
Sat 09:43:04 PM 31.5264 -83.4981 339° North 388 447 40,100  Level Atlanta Center
Sat 09:44:04 PM 31.6286 -83.5317 344° North 388 447 40,100  Level Atlanta Center
Sat 09:45:04 PM 31.7372 -83.5603 347° North 388 447 40,100  Level Atlanta Center
Sat 09:46:04 PM 31.8481 -83.5939 346° North 393 452 40,100  Level Atlanta Center
Sat 09:47:05 PM 31.9442 -83.6253 345° North 401 461 40,100  Level Atlanta Center
Sat 09:48:04 PM 32.0508 -83.6567 346° North 396 456 40,100  Level Atlanta Center
Sat 09:49:04 PM 32.1594 -83.6881 346° North 396 456 40,100  Level Atlanta Center
Sat 09:50:04 PM 32.2658 -83.7219 345° North 396 456 40,100  Level Atlanta Center
Sat 09:51:04 PM 32.3703 -83.7511 347° North 396 456 40,100  Level Atlanta Center
Sat 09:52:04 PM 32.4789 -83.7853 345° North 396 456 40,100  Level Atlanta Center
Sat 09:53:04 PM 32.5875 -83.8169 346° North 396 456 40,100  Level Atlanta Center
Sat 09:54:04 PM 32.6942 -83.8489 346° North 396 456 40,100  Level Atlanta Center
Sat 09:55:04 PM 32.7986 -83.8783 347° North 396 456 40,100  Level Atlanta Center
Sat 09:56:04 PM 32.9050 -83.9103 346° North 396 456 40,100  Level Atlanta Center
Sat 09:57:04 PM 33.0094 -83.9447 345° North 396 456 40,100  Level Atlanta Center
Sat 09:58:04 PM 33.1242 -83.9794 346° North 396 456 40,100  Level Atlanta Center
Sat 09:59:04 PM 33.2306 -84.0114 346° North 396 456 40,100  Level Atlanta Center
Sat 10:00:04 PM 33.3350 -84.0439 345° North 396 456 40,100  Level Atlanta Center
Sat 10:01:05 PM 33.4414 -84.0736 347° North 396 456 40,100  Level Atlanta Center
Sat 10:02:04 PM 33.5458 -84.1061 345° North 390 449 40,100  Level Atlanta Center
Sat 10:03:04 PM 33.6522 -84.1361 347° North 390 449 40,100  Level Atlanta Center
Sat 10:04:04 PM 33.7544 -84.1661 346° North 390 449 40,100  Level Atlanta Center
Sat 10:05:05 PM 33.8589 -84.1964 346° North 384 442 40,100  Level Atlanta Center
Sat 10:06:04 PM 33.9464 -84.2342 340° North 379 436 40,100  Level Atlanta Center
Sat 10:07:05 PM 34.0569 -84.2644 347° North 379 436 40,100  Level Atlanta Center
Sat 10:08:04 PM 34.1739 -84.2950 348° North 379 436 40,100  Level Atlanta Center
Sat 10:09:04 PM 34.2781 -84.3278 345° North 384 442 40,100  Level Atlanta Center
Sat 10:10:05 PM 34.3803 -84.3583 346° North 384 442 40,100  Level Atlanta Center
Sat 10:11:04 PM 34.4742 -84.3889 345° North 379 436 40,100  Level Atlanta Center
Sat 10:12:05 PM 34.5783 -84.4197 346° North 374 430 40,100  Level Atlanta Center
Sat 10:13:04 PM 34.6806 -84.4531 345° North 379 436 40,100  Level Atlanta Center
Sat 10:14:04 PM 34.7869 -84.4839 347° North 379 436 40,100  Level Atlanta Center
Sat 10:15:04 PM 34.8911 -84.5200 344° North 379 436 40,100  Level Atlanta Center
Sat 10:16:04 PM 34.9933 -84.5561 344° North 374 430 40,100  Level Atlanta Center
Sat 10:17:05 PM 35.0933 -84.5872 346° North 380 437 40,100  Level Atlanta Center
Sat 10:18:04 PM 35.1994 -84.6208 345° North 380 437 40,100  Level Atlanta Center
Sat 10:19:04 PM 35.3058 -84.6547 345° North 380 437 40,100  Level Atlanta Center
Sat 10:20:05 PM 35.4142 -84.6886 346° North 386 444 40,100  Level Atlanta Center
Sat 10:21:05 PM 35.5203 -84.7225 345° North 392 451 40,100  Level Atlanta Center
Sat 10:22:04 PM 35.6264 -84.7567 345° North 392 451 40,100  Level Atlanta Center
Sat 10:23:04 PM 35.7328 -84.7883 346° North 392 451 40,100  Level Atlanta Center
Sat 10:24:04 PM 35.8556 -84.8278 345° North 399 459 40,100  Level Atlanta Center
Sat 10:25:04 PM 35.9617 -84.8647 344° North 394 453 40,100  Level Atlanta Center
Sat 10:25:39 PM 36.0069 -84.8769 348° North 397 457 40,100  Level Indianapolis Center
Sat 10:26:40 PM 36.1361 -84.9189 345° North 399 459 40,100  Level Indianapolis Center
Sat 10:27:41 PM 36.2442 -84.9489 347° North 399 459 40,100  Level Indianapolis Center
Sat 10:28:41 PM 36.3522 -84.9786 348° North 399 459 40,100  Level Indianapolis Center
Sat 10:29:42 PM 36.4625 -85.0106 347° North 400 460 40,100  Level Indianapolis Center
Sat 10:30:43 PM 36.5733 -85.0439 346° North 404 465 40,100  Level Indianapolis Center
Sat 10:31:43 PM 36.6844 -85.0739 348° North 405 466 40,100  Level Indianapolis Center
Sat 10:32:44 PM 36.7939 -85.1061 347° North 406 467 40,100  Level Indianapolis Center
Sat 10:33:45 PM 36.9033 -85.1369 347° North 406 467 40,100  Level Indianapolis Center
Sat 10:34:45 PM 37.0119 -85.1694 347° North 405 466 40,100  Level Indianapolis Center
Sat 10:35:46 PM 37.1136 -85.1992 347° North 404 465 40,100  Level Indianapolis Center
Sat 10:36:46 PM 37.2414 -85.2350 347° North 404 465 40,100  Level Indianapolis Center
Sat 10:37:47 PM 37.3506 -85.2672 347° North 403 464 40,100  Level Indianapolis Center
Sat 10:38:48 PM 37.4608 -85.2986 347° North 403 464 40,100  Level Indianapolis Center
Sat 10:39:48 PM 37.5694 -85.3314 347° North 403 464 40,100  Level Indianapolis Center
Sat 10:40:49 PM 37.6781 -85.3625 347° North 403 464 40,100  Level Indianapolis Center
Sat 10:41:50 PM 37.7858 -85.3942 347° North 402 463 40,100  Level Indianapolis Center
Sat 10:42:50 PM 37.8892 -85.4264 346° North 396 456 40,100 -694 Level Indianapolis Center
Sat 10:43:51 PM 37.9928 -85.4558 347° North 387 445 38,700 -1,131 Descending Indianapolis Center
Sat 10:44:52 PM 38.0922 -85.4875 346° North 377 434 37,800 -1,488 Descending Indianapolis Center
Sat 10:45:52 PM 38.1989 -85.5189 347° North 382 440 35,700 -2,777 Descending Indianapolis Center
Sat 10:46:53 PM 38.3050 -85.5514 346° North 389 448 32,200 -3,570 Descending Indianapolis Center
Sat 10:47:53 PM 38.4172 -85.5844 347° North 405 466 28,500 -3,372 Descending Indianapolis Center
Sat 10:48:54 PM 38.5308 -85.6183 347° North 414 476 25,400 -2,164 Descending Indianapolis Center
Sat 10:49:55 PM 38.6572 -85.6500 349° North 414 476 24,100 -1,587 Descending Indianapolis Center
Sat 10:50:55 PM 38.7694 -85.6686 353° North 412 474 22,200 -2,281 Descending Indianapolis Center
Sat 10:51:56 PM 38.8761 -85.6883 352° North 396 456 19,500 -2,628 Descending Indianapolis Center
Sat 10:52:56 PM 38.9783 -85.7058 352° North 379 436 16,900 -2,479 Descending Indianapolis Center
Sat 10:53:57 PM 39.0783 -85.7247 352° North 369 425 14,500 -1,475 Descending Indianapolis Center
Sat 10:54:58 PM 39.1469 -85.8161 314° West 359 413 13,900 -1,240 Descending Indianapolis Center
Sat 10:55:58 PM 39.2094 -85.9092 311° West 351 404 12,000 -1,537 Descending Indianapolis Center
Sat 10:56:59 PM 39.2661 -85.9919 311° West 322 371 10,800 -1,190 Descending Indianapolis Center
Sat 10:57:59 PM 39.3172 -86.0678 311° West 290 334 9,600 -1,289 Descending Indianapolis Center
Sat 10:59:00 PM 39.3647 -86.1386 311° West 270 311 8,200 -1,686 Descending Indianapolis Center
Sat 11:00:00 PM 39.4128 -86.2097 311° West 262 302 6,200 -1,091 Descending Indianapolis Center
Sat 11:01:01 PM 39.4633 -86.2856 311° West 271 312 6,000 -148 Descending Indianapolis Center
Sat 11:02:02 PM 39.5131 -86.3597 311° West 271 312 5,900 -397 Descending Indianapolis Center
Sat 11:03:02 PM 39.5572 -86.4258 311° West 256 295 5,200 -1,041 Descending Indianapolis Center
Sat 11:04:03 PM 39.6081 -86.4547 336° Northwest 246 283 3,800 -1,140 Descending Indianapolis Center
Sat 11:05:03 PM 39.6422 -86.4017 50° Northeast 208 239 2,900 -992 Descending Indianapolis Center
Sat 11:06:04 PM 39.6711 -86.3658 44° Northeast 170 196 1,800 -893 Descending Indianapolis Center
Sat 11:07:04 PM 39.6944 -86.3364 44° Northeast 141 162 1,100 -545 Descending Indianapolis Center
Sat 11:08:05 PM 39.7222 -86.3008 45° Northeast 133 153 700 -393 Descending Indianapolis Center

Login

Don't have an account? Register now (free) for customized features, flight alerts, and more!